• Join FlightAware (Why Join?)
  • Login
  • US Flag 
09:52PM EDT


 

Airport Tracker/Info


-or-


 

Live Flight TrackerFlight Track Log ✈ UAL4191 ✈ 24-Apr-2013 ✈ KTYR - KIAH

Flight Track Log - Related Links

Times and Time Zones

All times are in EDT time to prevent confusion due to time zone crossing. See the UAL4191 flight status page for this flight to view local times or setup timezone preferences in your user account.

Time Position Orientation Groundspeed Altitude Reporting Facility
EDT Latitude Longitude Course Direction KTS MPH feet Rate Location/Type
11:26AM 32.3042 -95.2997 159° South 249 287 4,900  Level Fort Worth Center
11:27AM 32.1833 -95.1786 90° East  Level FlightAware Approximate
11:27AM 32.2511 -95.2517 143° Southeast 274 315 7,100  Level Fort Worth Center
11:28AM 32.1242 -95.1130 161° South  Level FlightAware Approximate
11:28AM 32.1669 -95.2119 158° South 280 322 10,100  Level Fort Worth Center
11:29AM 32.0435 -95.0804 159° South  Level FlightAware Approximate
11:29AM 32.0869 -95.1722 157° South 294 338 11,800  Level Fort Worth Center
11:30AM 31.9637 -95.0450 159° South  Level FlightAware Approximate
11:30AM 31.9986 -95.1278 157° South 319 367 13,800  Level Fort Worth Center
11:31AM 31.8840 -95.0094 159° South  Level FlightAware Approximate
11:31AM 31.9058 -95.0811 157° South 343 395 15,000  Level Fort Worth Center
11:32AM 31.7472 -95.0011 157° South 413 475 15,000  Level Houston Center
11:33AM 31.6553 -94.9567 158° South 404 465 15,000  Level Houston Center
11:34AM 31.5322 -94.8964 157° South 398 458 15,000  Level Houston Center
11:35AM 31.4278 -94.8458 158° South 404 465 15,000  Level Houston Center
11:36AM 31.3233 -94.7956 158° South 405 466 15,000  Level Houston Center
11:37AM 31.2275 -94.7483 157° South 413 475 15,000  Level Houston Center
11:38AM 31.0956 -94.6922 160° South 416 479 15,000  Level Houston Center
11:39AM 30.9875 -94.6522 162° South 411 473 15,000  Level Houston Center
11:40AM 30.8792 -94.6122 162° South 409 471 15,000  Level Houston Center
11:41AM 30.7697 -94.5708 162° South 410 472 15,000  Level Houston Center
11:42AM 30.6647 -94.5339 163° South 416 479 15,000  Level Houston Center
11:43AM 30.5469 -94.4911 163° South 417 480 15,000 -180 Level Houston Center
11:45AM 30.4231 -94.4536 165° South 407 468 14,700 -600 Descending Houston Center
11:45AM 30.3314 -94.4997 203° Southwest 375 432 13,800 -1,080 Descending Houston Center
11:46AM 30.2644 -94.5883 229° Southwest 365 420 12,700 -1,140 Descending Houston Center
11:47AM 30.1981 -94.6861 232° Southwest 369 425 11,600 -1,140 Descending Houston Center
11:48AM 30.1397 -94.7783 234° Southwest 342 394 10,500 -1,020 Descending Houston Center
11:49AM 30.0936 -94.8444 231° Southwest 271 312 9,700 -1,020 Descending Houston Center
11:50AM 30.0878 -94.8561 240° Southwest 289 333 9,300 -2,340 Descending Houston Center
11:50AM 30.0497 -94.9128 232° Southwest 266 306 7,300 -2,340 Descending Houston Center
11:51AM 30.0433 -94.9247 238° Southwest 268 308 6,900 -1,680 Descending Houston Center
11:51AM 30.0072 -94.9761 231° Southwest 224 258 5,600 -1,680 Descending Houston Center
11:52AM 29.9978 -94.9953 240° Southwest 233 268 5,200 -600 Descending Houston Center
11:52AM 29.9917 -95.0336 260° West 179 206 5,000 -540 Descending Houston Center
11:53AM 29.9933 -95.0522 276° West 190 219 4,700 -840 Descending Houston Center
11:53AM 29.9933 -95.0961 270° West 191 220 4,200 -1,020 Descending Houston Center
11:54AM 29.9931 -95.1142 269° West 191 220 3,700 -1,080 Descending Houston Center
11:54AM 29.9928 -95.1564 270° West 190 219 3,100 -960 Descending Houston Center